Impacts TAF Board
For situational awareness. Not to be used for flight planning purposes.
IDs:

KBIF - Biggs(AAF), TX, US

Issued at 2200 UTC 01 Feb 2023
Updated at 2239 UTC 01 Feb 2023
Potential Impact None Slight Moderate High
Time2155Z 01/23Z 02/00Z 02/01Z 02/02Z 02/03Z 02/04Z 02/05Z 02/06Z 02/07Z 02/08Z 02/09Z 02/10Z 02/11Z>>
Type OBS PRVL PRVL PRVL PRVL PRVL
  [TEMP]  
PRVL
  [TEMP]  
PRVL
  [TEMP]  
PRVL PRVL PRVL PRVL PRVL PRVL
VIS 10 >6 >6 >6 >6 >6
  [>6]  
>6
  [>6]  
>6
  [>6]  
>6 >6 >6 >6 >6 >6
CIG -- -- -- -- -- --
  [70]  
--
  [70]  
--
  [70]  
-- -- -- -- -- --
Cover CLR SCT SCT SCT SCT SCT
  [OVC]  
SCT
  [OVC]  
SCT
  [OVC]  
SCT SCT SCT SCT SCT SCT
FltCat VFR VFR VFR VFR VFR VFR
  [VFR]  
VFR
  [VFR]  
VFR
  [VFR]  
VFR VFR VFR VFR VFR VFR
WX -- -- -- -- -- --
  [VCSH]  
--
  [VCSH]  
--
  [VCSH]  
-- -- -- -- -- --
WDir 160 20 20 20 20 20
[20]
20
[20]
20
[20]
20 20 20 20 20 20
WSpd 6 10 10 10 10 10
  [9]  
10
  [9]  
10
  [9]  
10 10 10 10 10 10
WGst -- -- -- -- -- --
  [--]  
--
  [--]  
--
  [--]  
-- -- -- -- -- --
WSHgt -- -- -- -- -- --
[--]
--
[--]
--
[--]
-- -- -- -- -- --
WSDir -- -- -- -- -- --
[--]
--
[--]
--
[--]
-- -- -- -- -- --
WSSpd -- -- -- -- -- --
[--]
--
[--]
--
[--]
-- -- -- -- -- --
R04/22
XWnd -5 4 4 4 4 4 4 4 4 4 4 4 4 4
XGst -- -- -- -- -- 0 0 0 -- -- -- -- -- --
HWnd -3 9 9 9 9 9 9 9 9 9 9 9 9 9
HGst -- -- -- -- -- 0 0 0 -- -- -- -- -- --

NOTE: LAMP data beyond the time of the TAF data is denoted as LAMP in Type and colored magenta.

Raw TAF
TAF KBIF 012200Z 0122/0304 02010KT 9999 FEW080 SCT200 QNH3000INS
  TEMPO 0203/0206 02009KT 9999 VCSH OVC070 QNH3005INS
  BECMG 0214/0215 33009KT 9999 NSW SCT030 BKN250 QNH3011INS TX16/0221Z TNM01/0214Z


Raw METAR
KBIF 012155Z AUTO 16006KT 10SM CLR 11/M02 A3003 RMK AO2 SLP154 T01131022 $
KBIF 012055Z AUTO 00000KT 10SM CLR 11/M02 A3005 RMK AO2 SLP161 T01051025 57028 $
KBIF 011955Z AUTO 00000KT 10SM CLR 12/M02 A3006 RMK AO2 SLP162 T01201022 $

METAR Board
Radar Display
Forecast Discussion

For situational awareness. Not to be used for flight planning purposes.